sensor_id;sensor_type;location;lat;lon;timestamp;P1;durP1;ratioP1;P2;durP2;ratioP2
71606;SDS011;60641;53.556;9.914;2023-07-13T00:01:31;4.40;;;1.10;;
71606;SDS011;60641;53.556;9.914;2023-07-13T00:03:59;5.00;;;1.30;;
71606;SDS011;60641;53.556;9.914;2023-07-13T00:06:26;4.90;;;1.50;;
71606;SDS011;60641;53.556;9.914;2023-07-13T00:08:56;5.10;;;1.30;;
71606;SDS011;60641;53.556;9.914;2023-07-13T00:11:23;6.10;;;1.50;;
71606;SDS011;60641;53.556;9.914;2023-07-13T00:13:50;5.80;;;1.60;;
71606;SDS011;60641;53.556;9.914;2023-07-13T00:16:17;6.20;;;1.70;;
71606;SDS011;60641;53.556;9.914;2023-07-13T00:18:45;7.00;;;1.60;;
71606;SDS011;60641;53.556;9.914;2023-07-13T00:21:12;5.60;;;1.70;;
71606;SDS011;60641;53.556;9.914;2023-07-13T00:23:39;5.90;;;1.70;;
71606;SDS011;60641;53.556;9.914;2023-07-13T00:26:06;6.20;;;1.80;;
71606;SDS011;60641;53.556;9.914;2023-07-13T00:28:34;6.00;;;2.10;;
71606;SDS011;60641;53.556;9.914;2023-07-13T00:31:01;7.60;;;2.40;;
71606;SDS011;60641;53.556;9.914;2023-07-13T00:33:28;8.30;;;2.20;;
71606;SDS011;60641;53.556;9.914;2023-07-13T00:35:55;6.90;;;2.40;;
71606;SDS011;60641;53.556;9.914;2023-07-13T00:38:23;7.30;;;2.40;;
71606;SDS011;60641;53.556;9.914;2023-07-13T00:40:50;7.80;;;2.20;;
71606;SDS011;60641;53.556;9.914;2023-07-13T00:43:17;7.90;;;2.30;;
71606;SDS011;60641;53.556;9.914;2023-07-13T00:48:24;6.50;;;2.10;;
71606;SDS011;60641;53.556;9.914;2023-07-13T00:50:55;7.10;;;2.20;;
71606;SDS011;60641;53.556;9.914;2023-07-13T00:53:24;7.40;;;2.30;;
71606;SDS011;60641;53.556;9.914;2023-07-13T00:55:51;8.10;;;2.10;;
71606;SDS011;60641;53.556;9.914;2023-07-13T00:58:19;6.40;;;1.80;;
71606;SDS011;60641;53.556;9.914;2023-07-13T01:00:46;7.90;;;1.80;;
71606;SDS011;60641;53.556;9.914;2023-07-13T01:03:13;7.80;;;2.00;;
71606;SDS011;60641;53.556;9.914;2023-07-13T01:05:40;6.90;;;1.90;;
71606;SDS011;60641;53.556;9.914;2023-07-13T01:08:07;8.80;;;2.40;;
71606;SDS011;60641;53.556;9.914;2023-07-13T01:10:34;7.90;;;2.40;;
71606;SDS011;60641;53.556;9.914;2023-07-13T01:13:05;8.60;;;2.10;;
71606;SDS011;60641;53.556;9.914;2023-07-13T01:15:40;7.70;;;2.30;;
71606;SDS011;60641;53.556;9.914;2023-07-13T01:18:13;6.50;;;2.20;;
71606;SDS011;60641;53.556;9.914;2023-07-13T01:20:59;8.60;;;2.10;;
71606;SDS011;60641;53.556;9.914;2023-07-13T01:23:28;6.80;;;2.10;;
71606;SDS011;60641;53.556;9.914;2023-07-13T01:25:55;7.70;;;2.40;;
71606;SDS011;60641;53.556;9.914;2023-07-13T01:28:23;7.80;;;2.20;;
71606;SDS011;60641;53.556;9.914;2023-07-13T01:30:53;5.00;;;1.70;;
71606;SDS011;60641;53.556;9.914;2023-07-13T01:33:21;6.30;;;1.90;;
71606;SDS011;60641;53.556;9.914;2023-07-13T01:35:48;5.70;;;1.80;;
71606;SDS011;60641;53.556;9.914;2023-07-13T01:38:15;5.50;;;1.80;;
71606;SDS011;60641;53.556;9.914;2023-07-13T01:40:43;5.50;;;1.60;;
71606;SDS011;60641;53.556;9.914;2023-07-13T01:43:10;6.80;;;1.50;;
71606;SDS011;60641;53.556;9.914;2023-07-13T01:45:37;5.70;;;2.00;;
71606;SDS011;60641;53.556;9.914;2023-07-13T01:48:04;5.80;;;1.70;;
71606;SDS011;60641;53.556;9.914;2023-07-13T01:50:33;7.40;;;2.00;;
71606;SDS011;60641;53.556;9.914;2023-07-13T01:53:00;5.30;;;2.00;;
71606;SDS011;60641;53.556;9.914;2023-07-13T01:55:28;5.30;;;1.80;;
71606;SDS011;60641;53.556;9.914;2023-07-13T01:57:54;6.00;;;2.10;;
71606;SDS011;60641;53.556;9.914;2023-07-13T02:00:23;6.10;;;1.90;;
71606;SDS011;60641;53.556;9.914;2023-07-13T02:02:50;6.20;;;1.90;;
71606;SDS011;60641;53.556;9.914;2023-07-13T02:05:17;6.60;;;2.00;;
71606;SDS011;60641;53.556;9.914;2023-07-13T02:07:44;5.70;;;2.10;;
71606;SDS011;60641;53.556;9.914;2023-07-13T02:10:11;10.70;;;2.10;;
71606;SDS011;60641;53.556;9.914;2023-07-13T02:12:38;6.10;;;2.00;;
71606;SDS011;60641;53.556;9.914;2023-07-13T02:15:04;6.10;;;2.00;;
71606;SDS011;60641;53.556;9.914;2023-07-13T02:17:31;5.60;;;2.10;;
71606;SDS011;60641;53.556;9.914;2023-07-13T02:20:00;6.90;;;2.30;;
71606;SDS011;60641;53.556;9.914;2023-07-13T02:22:26;6.40;;;2.10;;
71606;SDS011;60641;53.556;9.914;2023-07-13T02:24:53;6.40;;;2.30;;
71606;SDS011;60641;53.556;9.914;2023-07-13T02:27:19;5.20;;;2.10;;
71606;SDS011;60641;53.556;9.914;2023-07-13T02:29:46;6.30;;;2.10;;
71606;SDS011;60641;53.556;9.914;2023-07-13T02:32:13;6.40;;;2.20;;
71606;SDS011;60641;53.556;9.914;2023-07-13T02:34:40;5.30;;;2.10;;
71606;SDS011;60641;53.556;9.914;2023-07-13T02:37:07;5.30;;;2.10;;
71606;SDS011;60641;53.556;9.914;2023-07-13T02:39:34;7.60;;;2.20;;
71606;SDS011;60641;53.556;9.914;2023-07-13T02:42:00;5.40;;;2.00;;
71606;SDS011;60641;53.556;9.914;2023-07-13T02:44:27;6.50;;;2.10;;
71606;SDS011;60641;53.556;9.914;2023-07-13T02:46:54;7.50;;;2.20;;
71606;SDS011;60641;53.556;9.914;2023-07-13T02:49:20;5.50;;;1.90;;
71606;SDS011;60641;53.556;9.914;2023-07-13T02:51:47;5.60;;;1.80;;
71606;SDS011;60641;53.556;9.914;2023-07-13T02:54:13;6.80;;;2.00;;
71606;SDS011;60641;53.556;9.914;2023-07-13T02:56:40;5.80;;;2.00;;
71606;SDS011;60641;53.556;9.914;2023-07-13T02:59:07;7.00;;;2.30;;
71606;SDS011;60641;53.556;9.914;2023-07-13T03:01:33;7.60;;;2.10;;
71606;SDS011;60641;53.556;9.914;2023-07-13T03:04:01;5.30;;;2.00;;
71606;SDS011;60641;53.556;9.914;2023-07-13T03:06:30;6.60;;;2.30;;
71606;SDS011;60641;53.556;9.914;2023-07-13T03:08:57;6.10;;;2.20;;
71606;SDS011;60641;53.556;9.914;2023-07-13T03:11:24;6.80;;;2.40;;
71606;SDS011;60641;53.556;9.914;2023-07-13T03:13:51;5.50;;;2.20;;
71606;SDS011;60641;53.556;9.914;2023-07-13T03:16:18;6.00;;;2.20;;
71606;SDS011;60641;53.556;9.914;2023-07-13T03:18:45;8.80;;;2.60;;
71606;SDS011;60641;53.556;9.914;2023-07-13T03:21:12;7.10;;;2.20;;
71606;SDS011;60641;53.556;9.914;2023-07-13T03:23:39;5.50;;;2.30;;
71606;SDS011;60641;53.556;9.914;2023-07-13T03:26:10;6.30;;;2.20;;
71606;SDS011;60641;53.556;9.914;2023-07-13T03:28:40;8.40;;;2.40;;
71606;SDS011;60641;53.556;9.914;2023-07-13T03:31:11;5.90;;;1.90;;
71606;SDS011;60641;53.556;9.914;2023-07-13T03:33:39;6.70;;;2.10;;
71606;SDS011;60641;53.556;9.914;2023-07-13T03:36:07;6.90;;;2.10;;
71606;SDS011;60641;53.556;9.914;2023-07-13T03:38:39;6.40;;;2.00;;
71606;SDS011;60641;53.556;9.914;2023-07-13T03:41:05;4.70;;;1.60;;
71606;SDS011;60641;53.556;9.914;2023-07-13T03:43:32;5.50;;;1.80;;
71606;SDS011;60641;53.556;9.914;2023-07-13T03:45:59;5.70;;;1.80;;
71606;SDS011;60641;53.556;9.914;2023-07-13T03:48:25;6.10;;;1.60;;
71606;SDS011;60641;53.556;9.914;2023-07-13T03:50:52;7.60;;;1.50;;
71606;SDS011;60641;53.556;9.914;2023-07-13T03:53:18;5.20;;;1.90;;
71606;SDS011;60641;53.556;9.914;2023-07-13T03:55:45;7.80;;;1.60;;
71606;SDS011;60641;53.556;9.914;2023-07-13T03:58:25;5.60;;;1.60;;
71606;SDS011;60641;53.556;9.914;2023-07-13T04:00:59;8.60;;;1.90;;
71606;SDS011;60641;53.556;9.914;2023-07-13T04:03:27;6.60;;;1.80;;
71606;SDS011;60641;53.556;9.914;2023-07-13T04:05:55;6.70;;;1.70;;
71606;SDS011;60641;53.556;9.914;2023-07-13T04:08:26;5.50;;;1.60;;
71606;SDS011;60641;53.556;9.914;2023-07-13T04:10:54;9.40;;;1.90;;
71606;SDS011;60641;53.556;9.914;2023-07-13T04:13:21;7.90;;;2.00;;
71606;SDS011;60641;53.556;9.914;2023-07-13T04:15:47;6.80;;;1.90;;
71606;SDS011;60641;53.556;9.914;2023-07-13T04:18:14;7.50;;;1.90;;
71606;SDS011;60641;53.556;9.914;2023-07-13T04:20:40;8.70;;;2.00;;
71606;SDS011;60641;53.556;9.914;2023-07-13T04:23:06;5.20;;;1.70;;
71606;SDS011;60641;53.556;9.914;2023-07-13T04:25:33;5.20;;;1.60;;
71606;SDS011;60641;53.556;9.914;2023-07-13T04:28:00;6.50;;;1.70;;
71606;SDS011;60641;53.556;9.914;2023-07-13T04:30:27;7.30;;;1.40;;
71606;SDS011;60641;53.556;9.914;2023-07-13T04:32:53;7.50;;;1.80;;
71606;SDS011;60641;53.556;9.914;2023-07-13T04:35:20;10.50;;;1.70;;
71606;SDS011;60641;53.556;9.914;2023-07-13T04:37:50;6.10;;;1.60;;
71606;SDS011;60641;53.556;9.914;2023-07-13T04:40:17;6.00;;;1.50;;
71606;SDS011;60641;53.556;9.914;2023-07-13T04:42:44;9.00;;;2.20;;
71606;SDS011;60641;53.556;9.914;2023-07-13T04:45:12;5.60;;;1.60;;
71606;SDS011;60641;53.556;9.914;2023-07-13T04:47:39;7.50;;;1.60;;
71606;SDS011;60641;53.556;9.914;2023-07-13T04:50:07;6.50;;;1.80;;
71606;SDS011;60641;53.556;9.914;2023-07-13T04:52:34;7.00;;;1.80;;
71606;SDS011;60641;53.556;9.914;2023-07-13T04:55:00;8.00;;;1.90;;
71606;SDS011;60641;53.556;9.914;2023-07-13T04:57:27;6.10;;;1.50;;
71606;SDS011;60641;53.556;9.914;2023-07-13T04:59:54;8.00;;;2.20;;
71606;SDS011;60641;53.556;9.914;2023-07-13T05:02:21;10.20;;;1.90;;
71606;SDS011;60641;53.556;9.914;2023-07-13T05:04:47;8.20;;;2.10;;
71606;SDS011;60641;53.556;9.914;2023-07-13T05:07:14;9.10;;;2.10;;
71606;SDS011;60641;53.556;9.914;2023-07-13T05:09:41;7.10;;;2.10;;
71606;SDS011;60641;53.556;9.914;2023-07-13T05:12:08;9.10;;;1.90;;
71606;SDS011;60641;53.556;9.914;2023-07-13T05:14:35;6.80;;;2.10;;
71606;SDS011;60641;53.556;9.914;2023-07-13T05:17:02;8.30;;;2.10;;
71606;SDS011;60641;53.556;9.914;2023-07-13T05:19:29;9.10;;;2.20;;
71606;SDS011;60641;53.556;9.914;2023-07-13T05:21:56;8.10;;;2.10;;
71606;SDS011;60641;53.556;9.914;2023-07-13T05:24:23;8.20;;;2.10;;
71606;SDS011;60641;53.556;9.914;2023-07-13T05:26:50;6.40;;;1.80;;
71606;SDS011;60641;53.556;9.914;2023-07-13T05:29:16;9.30;;;2.20;;
71606;SDS011;60641;53.556;9.914;2023-07-13T05:31:43;6.30;;;2.10;;
71606;SDS011;60641;53.556;9.914;2023-07-13T05:34:09;8.70;;;2.10;;
71606;SDS011;60641;53.556;9.914;2023-07-13T05:36:36;11.20;;;2.40;;
71606;SDS011;60641;53.556;9.914;2023-07-13T05:39:03;10.10;;;2.10;;
71606;SDS011;60641;53.556;9.914;2023-07-13T05:41:30;9.40;;;2.30;;
71606;SDS011;60641;53.556;9.914;2023-07-13T05:43:56;13.10;;;2.40;;
71606;SDS011;60641;53.556;9.914;2023-07-13T05:46:23;8.10;;;2.60;;
71606;SDS011;60641;53.556;9.914;2023-07-13T05:48:49;9.00;;;2.40;;
71606;SDS011;60641;53.556;9.914;2023-07-13T05:51:16;8.20;;;2.20;;
71606;SDS011;60641;53.556;9.914;2023-07-13T05:53:43;9.80;;;2.20;;
71606;SDS011;60641;53.556;9.914;2023-07-13T05:56:09;8.60;;;2.20;;
71606;SDS011;60641;53.556;9.914;2023-07-13T05:58:36;10.40;;;2.50;;
71606;SDS011;60641;53.556;9.914;2023-07-13T06:01:09;10.40;;;2.50;;
71606;SDS011;60641;53.556;9.914;2023-07-13T06:03:37;6.40;;;2.30;;
71606;SDS011;60641;53.556;9.914;2023-07-13T06:06:07;11.70;;;2.60;;
71606;SDS011;60641;53.556;9.914;2023-07-13T06:08:34;10.80;;;2.60;;
71606;SDS011;60641;53.556;9.914;2023-07-13T06:11:02;11.70;;;2.30;;
71606;SDS011;60641;53.556;9.914;2023-07-13T06:13:31;9.60;;;2.20;;
71606;SDS011;60641;53.556;9.914;2023-07-13T06:15:58;9.60;;;2.10;;
71606;SDS011;60641;53.556;9.914;2023-07-13T06:18:24;8.60;;;2.00;;
71606;SDS011;60641;53.556;9.914;2023-07-13T06:20:51;9.50;;;2.00;;
71606;SDS011;60641;53.556;9.914;2023-07-13T06:23:17;7.20;;;1.80;;
71606;SDS011;60641;53.556;9.914;2023-07-13T06:25:44;10.80;;;2.40;;
71606;SDS011;60641;53.556;9.914;2023-07-13T06:28:10;10.40;;;2.50;;
71606;SDS011;60641;53.556;9.914;2023-07-13T06:30:38;6.90;;;1.70;;
71606;SDS011;60641;53.556;9.914;2023-07-13T06:33:05;10.90;;;2.20;;
71606;SDS011;60641;53.556;9.914;2023-07-13T06:35:32;13.60;;;2.50;;
71606;SDS011;60641;53.556;9.914;2023-07-13T06:37:58;9.70;;;2.30;;
71606;SDS011;60641;53.556;9.914;2023-07-13T06:40:25;12.20;;;2.40;;
71606;SDS011;60641;53.556;9.914;2023-07-13T06:42:52;13.00;;;2.30;;
71606;SDS011;60641;53.556;9.914;2023-07-13T06:45:18;11.50;;;2.20;;
71606;SDS011;60641;53.556;9.914;2023-07-13T06:47:44;12.50;;;2.00;;
71606;SDS011;60641;53.556;9.914;2023-07-13T06:50:11;14.10;;;2.20;;
71606;SDS011;60641;53.556;9.914;2023-07-13T06:52:38;9.70;;;2.00;;
71606;SDS011;60641;53.556;9.914;2023-07-13T06:55:04;8.90;;;2.00;;
71606;SDS011;60641;53.556;9.914;2023-07-13T06:57:31;12.70;;;2.60;;
71606;SDS011;60641;53.556;9.914;2023-07-13T06:59:58;10.80;;;1.90;;
71606;SDS011;60641;53.556;9.914;2023-07-13T07:02:24;12.00;;;2.30;;
71606;SDS011;60641;53.556;9.914;2023-07-13T07:04:51;12.10;;;2.10;;
71606;SDS011;60641;53.556;9.914;2023-07-13T07:07:17;14.50;;;2.10;;
71606;SDS011;60641;53.556;9.914;2023-07-13T07:09:44;10.60;;;1.80;;
71606;SDS011;60641;53.556;9.914;2023-07-13T07:12:10;9.60;;;1.80;;
71606;SDS011;60641;53.556;9.914;2023-07-13T07:14:37;13.00;;;2.20;;
71606;SDS011;60641;53.556;9.914;2023-07-13T07:17:03;14.30;;;1.90;;
71606;SDS011;60641;53.556;9.914;2023-07-13T07:19:30;12.10;;;2.20;;
71606;SDS011;60641;53.556;9.914;2023-07-13T07:21:58;11.40;;;1.70;;
71606;SDS011;60641;53.556;9.914;2023-07-13T07:24:24;13.90;;;2.10;;
71606;SDS011;60641;53.556;9.914;2023-07-13T07:26:51;10.10;;;1.90;;
71606;SDS011;60641;53.556;9.914;2023-07-13T07:29:17;9.00;;;1.60;;
71606;SDS011;60641;53.556;9.914;2023-07-13T07:31:43;9.90;;;1.90;;
71606;SDS011;60641;53.556;9.914;2023-07-13T07:34:10;9.70;;;2.00;;
71606;SDS011;60641;53.556;9.914;2023-07-13T07:36:36;10.00;;;1.70;;
71606;SDS011;60641;53.556;9.914;2023-07-13T07:39:03;9.90;;;1.70;;
71606;SDS011;60641;53.556;9.914;2023-07-13T07:41:29;10.50;;;1.90;;
71606;SDS011;60641;53.556;9.914;2023-07-13T07:43:56;10.70;;;1.90;;
71606;SDS011;60641;53.556;9.914;2023-07-13T07:46:22;8.10;;;1.90;;
71606;SDS011;60641;53.556;9.914;2023-07-13T07:48:49;9.30;;;1.70;;
71606;SDS011;60641;53.556;9.914;2023-07-13T07:51:15;12.10;;;2.00;;
71606;SDS011;60641;53.556;9.914;2023-07-13T07:53:41;9.80;;;1.90;;
71606;SDS011;60641;53.556;9.914;2023-07-13T07:56:08;9.90;;;1.70;;
71606;SDS011;60641;53.556;9.914;2023-07-13T07:58:36;7.40;;;1.70;;
71606;SDS011;60641;53.556;9.914;2023-07-13T08:01:03;10.90;;;2.10;;
71606;SDS011;60641;53.556;9.914;2023-07-13T08:03:32;7.80;;;1.60;;
71606;SDS011;60641;53.556;9.914;2023-07-13T08:05:59;9.20;;;1.70;;
71606;SDS011;60641;53.556;9.914;2023-07-13T08:08:26;10.20;;;2.00;;
71606;SDS011;60641;53.556;9.914;2023-07-13T08:10:52;9.50;;;1.90;;
71606;SDS011;60641;53.556;9.914;2023-07-13T08:13:19;9.20;;;1.60;;
71606;SDS011;60641;53.556;9.914;2023-07-13T08:15:46;6.70;;;1.50;;
71606;SDS011;60641;53.556;9.914;2023-07-13T08:18:13;12.70;;;1.60;;
71606;SDS011;60641;53.556;9.914;2023-07-13T08:20:39;11.20;;;2.40;;
71606;SDS011;60641;53.556;9.914;2023-07-13T08:23:09;9.20;;;1.90;;
71606;SDS011;60641;53.556;9.914;2023-07-13T08:25:36;8.70;;;2.00;;
71606;SDS011;60641;53.556;9.914;2023-07-13T08:28:03;11.00;;;2.00;;
71606;SDS011;60641;53.556;9.914;2023-07-13T08:30:30;13.50;;;1.70;;
71606;SDS011;60641;53.556;9.914;2023-07-13T08:32:56;8.50;;;1.80;;
71606;SDS011;60641;53.556;9.914;2023-07-13T08:35:23;10.40;;;2.00;;
71606;SDS011;60641;53.556;9.914;2023-07-13T08:37:51;8.30;;;1.60;;
71606;SDS011;60641;53.556;9.914;2023-07-13T08:40:18;8.60;;;1.60;;
71606;SDS011;60641;53.556;9.914;2023-07-13T08:42:46;10.00;;;2.00;;
71606;SDS011;60641;53.556;9.914;2023-07-13T08:47:55;9.20;;;1.60;;
71606;SDS011;60641;53.556;9.914;2023-07-13T08:50:27;8.20;;;1.60;;
71606;SDS011;60641;53.556;9.914;2023-07-13T08:53:00;12.50;;;1.90;;
71606;SDS011;60641;53.556;9.914;2023-07-13T08:55:29;7.50;;;1.70;;
71606;SDS011;60641;53.556;9.914;2023-07-13T08:58:02;8.40;;;1.50;;
71606;SDS011;60641;53.556;9.914;2023-07-13T09:00:44;10.80;;;1.70;;
71606;SDS011;60641;53.556;9.914;2023-07-13T09:03:18;10.30;;;1.60;;
71606;SDS011;60641;53.556;9.914;2023-07-13T09:05:48;10.40;;;2.40;;
71606;SDS011;60641;53.556;9.914;2023-07-13T09:14:22;12.90;;;3.30;;
71606;SDS011;60641;53.556;9.914;2023-07-13T09:17:11;11.40;;;3.20;;
71606;SDS011;60641;53.556;9.914;2023-07-13T09:19:41;8.90;;;2.20;;
71606;SDS011;60641;53.556;9.914;2023-07-13T09:22:10;11.60;;;1.90;;
71606;SDS011;60641;53.556;9.914;2023-07-13T09:24:53;11.20;;;2.90;;
71606;SDS011;60641;53.556;9.914;2023-07-13T09:27:22;8.50;;;1.80;;
71606;SDS011;60641;53.556;9.914;2023-07-13T09:32:41;6.00;;;1.70;;
71606;SDS011;60641;53.556;9.914;2023-07-13T09:35:11;10.20;;;1.70;;
71606;SDS011;60641;53.556;9.914;2023-07-13T09:37:39;12.00;;;2.20;;
71606;SDS011;60641;53.556;9.914;2023-07-13T09:40:11;9.80;;;1.40;;
71606;SDS011;60641;53.556;9.914;2023-07-13T09:42:44;8.60;;;1.80;;
71606;SDS011;60641;53.556;9.914;2023-07-13T09:45:10;8.30;;;1.90;;
71606;SDS011;60641;53.556;9.914;2023-07-13T09:47:43;9.30;;;1.70;;
71606;SDS011;60641;53.556;9.914;2023-07-13T09:50:14;8.50;;;1.80;;
71606;SDS011;60641;53.556;9.914;2023-07-13T09:52:46;6.70;;;1.70;;
71606;SDS011;60641;53.556;9.914;2023-07-13T09:57:53;7.70;;;2.10;;
71606;SDS011;60641;53.556;9.914;2023-07-13T10:00:24;9.60;;;1.80;;
71606;SDS011;60641;53.556;9.914;2023-07-13T10:03:03;8.70;;;1.80;;
71606;SDS011;60641;53.556;9.914;2023-07-13T10:05:39;7.30;;;1.60;;
71606;SDS011;60641;53.556;9.914;2023-07-13T10:08:15;7.70;;;2.00;;
71606;SDS011;60641;53.556;9.914;2023-07-13T10:10:45;8.70;;;1.60;;
71606;SDS011;60641;53.556;9.914;2023-07-13T10:13:26;7.30;;;1.90;;
71606;SDS011;60641;53.556;9.914;2023-07-13T10:16:06;8.30;;;2.10;;
71606;SDS011;60641;53.556;9.914;2023-07-13T10:18:46;8.00;;;1.70;;
71606;SDS011;60641;53.556;9.914;2023-07-13T10:21:17;7.40;;;1.50;;
71606;SDS011;60641;53.556;9.914;2023-07-13T10:23:47;11.50;;;2.10;;
71606;SDS011;60641;53.556;9.914;2023-07-13T10:26:18;5.90;;;1.50;;
71606;SDS011;60641;53.556;9.914;2023-07-13T10:28:51;7.40;;;1.70;;
71606;SDS011;60641;53.556;9.914;2023-07-13T10:31:19;9.90;;;1.80;;
71606;SDS011;60641;53.556;9.914;2023-07-13T10:33:47;7.20;;;1.80;;
71606;SDS011;60641;53.556;9.914;2023-07-13T10:36:17;6.30;;;1.70;;
71606;SDS011;60641;53.556;9.914;2023-07-13T10:38:50;7.90;;;1.60;;
71606;SDS011;60641;53.556;9.914;2023-07-13T10:41:18;10.80;;;2.20;;
71606;SDS011;60641;53.556;9.914;2023-07-13T10:43:48;8.60;;;1.80;;
71606;SDS011;60641;53.556;9.914;2023-07-13T10:46:18;7.90;;;1.80;;
71606;SDS011;60641;53.556;9.914;2023-07-13T10:48:48;8.60;;;1.60;;
71606;SDS011;60641;53.556;9.914;2023-07-13T10:51:18;9.90;;;1.90;;
71606;SDS011;60641;53.556;9.914;2023-07-13T10:54:11;5.60;;;1.60;;
71606;SDS011;60641;53.556;9.914;2023-07-13T10:56:38;9.40;;;2.10;;
71606;SDS011;60641;53.556;9.914;2023-07-13T11:04:19;7.10;;;1.70;;
71606;SDS011;60641;53.556;9.914;2023-07-13T11:06:47;8.00;;;1.80;;
71606;SDS011;60641;53.556;9.914;2023-07-13T11:11:48;7.80;;;1.60;;
71606;SDS011;60641;53.556;9.914;2023-07-13T11:22:48;6.40;;;1.60;;
71606;SDS011;60641;53.556;9.914;2023-07-13T11:27:50;6.70;;;1.70;;
71606;SDS011;60641;53.556;9.914;2023-07-13T11:33:01;6.50;;;1.20;;
71606;SDS011;60641;53.556;9.914;2023-07-13T11:38:36;8.70;;;1.60;;
71606;SDS011;60641;53.556;9.914;2023-07-13T11:41:05;6.70;;;1.50;;
71606;SDS011;60641;53.556;9.914;2023-07-13T11:43:53;6.10;;;1.70;;
71606;SDS011;60641;53.556;9.914;2023-07-13T11:46:22;7.80;;;1.70;;
71606;SDS011;60641;53.556;9.914;2023-07-13T11:48:50;8.30;;;1.80;;
71606;SDS011;60641;53.556;9.914;2023-07-13T11:51:21;5.70;;;1.50;;
71606;SDS011;60641;53.556;9.914;2023-07-13T11:53:49;7.30;;;1.70;;
71606;SDS011;60641;53.556;9.914;2023-07-13T11:56:16;7.60;;;1.40;;
71606;SDS011;60641;53.556;9.914;2023-07-13T11:58:48;5.10;;;1.50;;
71606;SDS011;60641;53.556;9.914;2023-07-13T12:01:24;7.00;;;1.60;;
71606;SDS011;60641;53.556;9.914;2023-07-13T12:03:55;7.50;;;1.40;;
71606;SDS011;60641;53.556;9.914;2023-07-13T12:08:48;6.80;;;1.60;;
71606;SDS011;60641;53.556;9.914;2023-07-13T12:11:15;6.30;;;1.70;;
71606;SDS011;60641;53.556;9.914;2023-07-13T12:13:43;7.40;;;1.80;;
71606;SDS011;60641;53.556;9.914;2023-07-13T12:16:11;9.80;;;1.60;;
71606;SDS011;60641;53.556;9.914;2023-07-13T12:18:43;7.00;;;1.80;;
71606;SDS011;60641;53.556;9.914;2023-07-13T12:21:17;9.30;;;1.50;;
71606;SDS011;60641;53.556;9.914;2023-07-13T12:23:47;6.40;;;1.60;;
71606;SDS011;60641;53.556;9.914;2023-07-13T12:26:15;8.00;;;1.90;;
71606;SDS011;60641;53.556;9.914;2023-07-13T12:28:44;7.00;;;1.60;;
71606;SDS011;60641;53.556;9.914;2023-07-13T12:33:58;6.80;;;1.30;;
71606;SDS011;60641;53.556;9.914;2023-07-13T12:39:16;4.20;;;1.30;;
71606;SDS011;60641;53.556;9.914;2023-07-13T12:41:49;4.00;;;1.20;;
71606;SDS011;60641;53.556;9.914;2023-07-13T12:44:18;7.60;;;1.20;;
71606;SDS011;60641;53.556;9.914;2023-07-13T12:47:03;6.00;;;1.20;;
71606;SDS011;60641;53.556;9.914;2023-07-13T12:49:32;6.70;;;1.10;;
71606;SDS011;60641;53.556;9.914;2023-07-13T12:52:03;6.70;;;1.30;;
71606;SDS011;60641;53.556;9.914;2023-07-13T12:54:30;7.20;;;1.40;;
71606;SDS011;60641;53.556;9.914;2023-07-13T12:56:58;5.50;;;1.50;;
71606;SDS011;60641;53.556;9.914;2023-07-13T12:59:28;6.50;;;1.30;;
71606;SDS011;60641;53.556;9.914;2023-07-13T13:01:56;4.70;;;1.20;;
71606;SDS011;60641;53.556;9.914;2023-07-13T13:04:23;4.90;;;1.50;;
71606;SDS011;60641;53.556;9.914;2023-07-13T13:06:58;7.80;;;1.40;;
71606;SDS011;60641;53.556;9.914;2023-07-13T13:09:27;7.00;;;1.10;;
71606;SDS011;60641;53.556;9.914;2023-07-13T13:11:53;5.50;;;1.10;;
71606;SDS011;60641;53.556;9.914;2023-07-13T13:14:20;4.60;;;1.20;;
71606;SDS011;60641;53.556;9.914;2023-07-13T13:16:48;5.30;;;1.10;;
71606;SDS011;60641;53.556;9.914;2023-07-13T13:19:25;5.30;;;1.20;;
71606;SDS011;60641;53.556;9.914;2023-07-13T13:21:53;5.50;;;1.10;;
71606;SDS011;60641;53.556;9.914;2023-07-13T13:24:23;5.60;;;1.20;;
71606;SDS011;60641;53.556;9.914;2023-07-13T13:26:52;4.00;;;1.00;;
71606;SDS011;60641;53.556;9.914;2023-07-13T13:29:19;7.40;;;1.30;;
71606;SDS011;60641;53.556;9.914;2023-07-13T13:31:55;6.40;;;1.40;;
71606;SDS011;60641;53.556;9.914;2023-07-13T13:34:23;3.40;;;1.10;;
71606;SDS011;60641;53.556;9.914;2023-07-13T13:36:52;4.20;;;1.10;;
71606;SDS011;60641;53.556;9.914;2023-07-13T13:39:22;4.30;;;1.20;;
71606;SDS011;60641;53.556;9.914;2023-07-13T13:41:52;5.70;;;1.30;;
71606;SDS011;60641;53.556;9.914;2023-07-13T13:44:22;7.90;;;1.20;;
71606;SDS011;60641;53.556;9.914;2023-07-13T13:46:51;5.70;;;1.30;;
71606;SDS011;60641;53.556;9.914;2023-07-13T13:49:21;5.10;;;1.10;;
71606;SDS011;60641;53.556;9.914;2023-07-13T13:51:48;5.40;;;1.30;;
71606;SDS011;60641;53.556;9.914;2023-07-13T13:54:15;4.30;;;1.20;;
71606;SDS011;60641;53.556;9.914;2023-07-13T13:56:43;5.20;;;1.20;;
71606;SDS011;60641;53.556;9.914;2023-07-13T13:59:11;5.00;;;1.30;;
71606;SDS011;60641;53.556;9.914;2023-07-13T14:01:38;5.10;;;1.40;;
71606;SDS011;60641;53.556;9.914;2023-07-13T14:04:05;6.40;;;1.70;;
71606;SDS011;60641;53.556;9.914;2023-07-13T14:06:32;5.50;;;1.40;;
71606;SDS011;60641;53.556;9.914;2023-07-13T14:09:00;4.20;;;1.30;;
71606;SDS011;60641;53.556;9.914;2023-07-13T14:11:27;5.60;;;1.40;;
71606;SDS011;60641;53.556;9.914;2023-07-13T14:13:57;5.00;;;1.30;;
71606;SDS011;60641;53.556;9.914;2023-07-13T14:16:31;5.10;;;1.40;;
71606;SDS011;60641;53.556;9.914;2023-07-13T14:19:00;5.70;;;1.20;;
71606;SDS011;60641;53.556;9.914;2023-07-13T14:21:27;5.70;;;1.40;;
71606;SDS011;60641;53.556;9.914;2023-07-13T14:23:55;5.70;;;1.30;;
71606;SDS011;60641;53.556;9.914;2023-07-13T14:26:25;4.60;;;1.50;;
71606;SDS011;60641;53.556;9.914;2023-07-13T14:28:54;5.10;;;1.50;;
71606;SDS011;60641;53.556;9.914;2023-07-13T14:31:23;4.00;;;1.30;;
71606;SDS011;60641;53.556;9.914;2023-07-13T14:33:50;4.10;;;1.30;;
71606;SDS011;60641;53.556;9.914;2023-07-13T14:36:25;5.30;;;1.30;;
71606;SDS011;60641;53.556;9.914;2023-07-13T14:38:57;5.50;;;1.40;;
71606;SDS011;60641;53.556;9.914;2023-07-13T14:41:24;4.10;;;1.30;;
71606;SDS011;60641;53.556;9.914;2023-07-13T14:43:51;5.30;;;1.30;;
71606;SDS011;60641;53.556;9.914;2023-07-13T14:46:28;8.00;;;1.60;;
71606;SDS011;60641;53.556;9.914;2023-07-13T14:48:59;5.50;;;1.40;;
71606;SDS011;60641;53.556;9.914;2023-07-13T14:51:27;6.20;;;1.50;;
71606;SDS011;60641;53.556;9.914;2023-07-13T14:53:54;4.40;;;1.30;;
71606;SDS011;60641;53.556;9.914;2023-07-13T14:56:21;9.00;;;1.80;;
71606;SDS011;60641;53.556;9.914;2023-07-13T14:58:48;5.40;;;1.50;;
71606;SDS011;60641;53.556;9.914;2023-07-13T15:01:15;6.40;;;1.50;;
71606;SDS011;60641;53.556;9.914;2023-07-13T15:03:43;4.70;;;1.40;;
71606;SDS011;60641;53.556;9.914;2023-07-13T15:06:12;6.10;;;1.40;;
71606;SDS011;60641;53.556;9.914;2023-07-13T15:08:39;5.20;;;1.60;;
71606;SDS011;60641;53.556;9.914;2023-07-13T15:11:09;5.20;;;1.60;;
71606;SDS011;60641;53.556;9.914;2023-07-13T15:13:39;7.80;;;1.90;;
71606;SDS011;60641;53.556;9.914;2023-07-13T15:16:16;4.80;;;1.60;;
71606;SDS011;60641;53.556;9.914;2023-07-13T15:18:44;5.60;;;1.40;;
71606;SDS011;60641;53.556;9.914;2023-07-13T15:21:14;7.10;;;1.40;;
71606;SDS011;60641;53.556;9.914;2023-07-13T15:23:46;5.90;;;1.60;;
71606;SDS011;60641;53.556;9.914;2023-07-13T15:26:14;5.60;;;1.40;;
71606;SDS011;60641;53.556;9.914;2023-07-13T15:28:42;52.50;;;2.80;;
71606;SDS011;60641;53.556;9.914;2023-07-13T15:33:53;4.30;;;1.40;;
71606;SDS011;60641;53.556;9.914;2023-07-13T15:36:21;5.40;;;1.30;;
71606;SDS011;60641;53.556;9.914;2023-07-13T15:38:48;4.50;;;1.30;;
71606;SDS011;60641;53.556;9.914;2023-07-13T15:43:44;3.70;;;1.00;;
71606;SDS011;60641;53.556;9.914;2023-07-13T15:46:11;6.50;;;1.40;;
71606;SDS011;60641;53.556;9.914;2023-07-13T15:48:37;4.10;;;1.30;;